Time;durP1;ratioP1;P1;durP2;ratioP2;P2;SDS_P1;SDS_P2;PMS_P1;PMS_P2;Temp;Humidity;BMP_temperature;BMP_pressure;BME280_temperature;BME280_humidity;BME280_pressure;Samples;Min_cycle;Max_cycle;Signal;HPM_P1;HPM_P2
2022/05/14 00:02:09;;;;;;;3.05;1.83;;;13.30;70.60;;;;;;605567;235;26591;-66
2022/05/14 00:04:36;;;;;;;2.10;1.50;;;13.30;70.40;;;;;;607620;235;26851;-66
2022/05/14 00:07:03;;;;;;;2.60;1.73;;;13.20;70.40;;;;;;610771;235;26577;-66
2022/05/14 00:09:31;;;;;;;1.75;1.65;;;13.10;70.80;;;;;;607263;235;26576;-66
2022/05/14 00:14:31;;;;;;;2.35;1.80;;;13.10;71.00;;;;;;605371;235;26615;-66
2022/05/14 00:16:58;;;;;;;1.83;1.60;;;13.10;71.30;;;;;;606887;232;26862;-66
2022/05/14 00:19:27;;;;;;;2.33;1.73;;;13.10;71.40;;;;;;607562;235;26598;-65
2022/05/14 00:21:53;;;;;;;1.83;1.65;;;13.10;71.40;;;;;;607855;235;26661;-65
2022/05/14 00:24:22;;;;;;;2.55;1.50;;;13.10;71.50;;;;;;605211;236;26613;-65
2022/05/14 00:26:48;;;;;;;3.37;1.60;;;13.10;71.80;;;;;;602703;238;26833;-66
2022/05/14 00:29:15;;;;;;;2.67;1.80;;;13.10;71.80;;;;;;604214;234;26855;-66
2022/05/14 00:31:42;;;;;;;2.40;1.80;;;13.10;71.60;;;;;;608010;235;26638;-66
2022/05/14 00:34:10;;;;;;;2.45;2.12;;;13.10;71.70;;;;;;603591;235;26880;-66
2022/05/14 00:36:37;;;;;;;1.90;1.40;;;13.20;71.70;;;;;;604399;235;26576;-66
2022/05/14 00:39:05;;;;;;;2.50;1.52;;;13.10;72.00;;;;;;610909;235;26579;-66
2022/05/14 00:41:36;;;;;;;4.03;1.67;;;13.00;72.10;;;;;;607345;235;26662;-66
2022/05/14 00:44:00;;;;;;;2.30;1.67;;;13.00;72.10;;;;;;603098;235;26638;-66
2022/05/14 00:46:41;;;;;;;1.90;1.60;;;13.00;72.10;;;;;;607217;236;26649;-66
2022/05/14 00:49:08;;;;;;;2.25;1.73;;;12.90;72.40;;;;;;605038;235;26820;-66
2022/05/14 00:51:35;;;;;;;2.15;1.60;;;12.90;72.80;;;;;;592996;240;26609;-67
2022/05/14 00:54:05;;;;;;;2.17;1.85;;;12.80;72.80;;;;;;608891;235;26909;-67
2022/05/14 00:56:33;;;;;;;2.20;1.83;;;12.80;73.20;;;;;;604152;237;26800;-67
2022/05/14 00:59:13;;;;;;;1.77;1.60;;;12.90;73.30;;;;;;602393;236;27095;-67
2022/05/14 01:01:39;;;;;;;1.92;1.65;;;13.00;73.10;;;;;;606181;235;26562;-66
2022/05/14 01:04:06;;;;;;;1.67;1.50;;;13.10;73.00;;;;;;608988;236;26844;-66
2022/05/14 01:06:33;;;;;;;1.62;1.50;;;13.20;72.80;;;;;;604931;236;26558;-66
2022/05/14 01:09:04;;;;;;;2.58;1.75;;;13.20;72.60;;;;;;607178;235;26855;-66
2022/05/14 01:11:28;;;;;;;2.67;1.70;;;13.30;72.50;;;;;;612472;235;26601;-66
2022/05/14 01:13:56;;;;;;;2.85;1.55;;;13.30;72.40;;;;;;610935;234;26659;-66
2022/05/14 01:16:24;;;;;;;1.48;1.37;;;13.40;72.30;;;;;;604988;237;26563;-66
2022/05/14 01:18:52;;;;;;;1.58;1.48;;;13.30;72.10;;;;;;604176;235;26545;-65
2022/05/14 01:21:23;;;;;;;3.08;2.00;;;13.30;72.10;;;;;;602027;238;27169;-65
2022/05/14 01:26:28;;;;;;;5.00;1.95;;;13.30;72.10;;;;;;604975;237;26551;-77
2022/05/14 01:28:58;;;;;;;5.85;2.12;;;13.30;72.20;;;;;;604249;235;26832;-76
2022/05/14 01:31:27;;;;;;;2.35;1.58;;;13.40;72.20;;;;;;604202;236;26574;-77
2022/05/14 01:33:54;;;;;;;2.85;1.67;;;13.40;72.30;;;;;;601436;237;26666;-77
2022/05/14 01:36:22;;;;;;;3.37;2.08;;;13.40;72.40;;;;;;606047;233;26660;-77
2022/05/14 01:38:50;;;;;;;2.40;1.62;;;13.40;72.40;;;;;;604695;236;26892;-77
2022/05/14 01:41:17;;;;;;;2.05;1.80;;;13.40;72.40;;;;;;606853;232;26884;-78
2022/05/14 01:43:45;;;;;;;2.05;1.55;;;13.40;72.30;;;;;;605768;235;26660;-77
2022/05/14 01:46:13;;;;;;;3.05;1.83;;;13.40;72.30;;;;;;602854;236;26589;-77
2022/05/14 01:48:41;;;;;;;2.35;1.65;;;13.40;72.40;;;;;;602392;236;26577;-77
2022/05/14 01:51:08;;;;;;;2.30;2.10;;;13.40;72.70;;;;;;604427;237;26705;-77
2022/05/14 01:53:36;;;;;;;1.65;1.42;;;13.40;72.40;;;;;;606849;235;26603;-77
2022/05/14 01:56:03;;;;;;;2.80;1.70;;;13.40;72.50;;;;;;605097;236;26598;-77
2022/05/14 02:01:09;;;;;;;2.72;1.58;;;13.40;72.50;;;;;;603301;236;26802;-76
2022/05/14 02:03:36;;;;;;;2.30;1.70;;;13.40;72.40;;;;;;609281;235;26612;-77
2022/05/14 02:06:03;;;;;;;1.73;1.62;;;13.40;72.40;;;;;;605428;236;26589;-77
2022/05/14 02:08:30;;;;;;;2.00;1.80;;;13.40;72.30;;;;;;601882;237;26566;-77
2022/05/14 02:10:57;;;;;;;3.42;2.15;;;13.40;72.30;;;;;;602470;237;26818;-77
2022/05/14 02:13:25;;;;;;;1.98;1.50;;;13.40;72.10;;;;;;601478;236;26657;-77
2022/05/14 02:15:53;;;;;;;3.17;1.65;;;13.40;72.20;;;;;;603387;237;26824;-77
2022/05/14 02:18:19;;;;;;;2.00;1.80;;;13.40;72.20;;;;;;602675;237;26664;-77
2022/05/14 02:20:47;;;;;;;2.25;1.75;;;13.40;71.90;;;;;;601607;238;26861;-78
2022/05/14 02:23:14;;;;;;;2.20;1.65;;;13.40;71.90;;;;;;603391;238;26850;-77
2022/05/14 02:25:41;;;;;;;2.35;1.87;;;13.40;71.60;;;;;;601780;236;26628;-77
2022/05/14 02:28:09;;;;;;;3.47;1.65;;;13.40;71.70;;;;;;604927;236;27181;-77
2022/05/14 02:30:36;;;;;;;5.07;1.80;;;13.40;71.50;;;;;;602328;237;26641;-77
2022/05/14 02:33:04;;;;;;;2.70;1.55;;;13.40;71.50;;;;;;603561;234;26597;-77
2022/05/14 02:35:32;;;;;;;2.25;1.58;;;13.40;71.30;;;;;;601563;237;26621;-77
2022/05/14 02:38:00;;;;;;;2.67;1.77;;;13.40;71.10;;;;;;602743;237;26646;-77
2022/05/14 02:40:28;;;;;;;2.55;1.50;;;13.40;71.10;;;;;;604264;238;26590;-77
2022/05/14 02:42:55;;;;;;;3.15;1.80;;;13.40;70.60;;;;;;604155;236;26662;-77
2022/05/14 02:45:23;;;;;;;1.73;1.60;;;13.30;71.20;;;;;;606260;235;26867;-76
2022/05/14 02:47:50;;;;;;;4.95;2.10;;;13.30;71.10;;;;;;605683;235;26851;-77
2022/05/14 02:50:17;;;;;;;2.75;1.73;;;13.20;71.20;;;;;;605087;237;26613;-77
2022/05/14 02:52:44;;;;;;;3.78;1.90;;;13.30;71.20;;;;;;606107;235;27063;-78
2022/05/14 02:55:12;;;;;;;2.83;1.83;;;13.20;71.00;;;;;;608359;235;26667;-78
2022/05/14 02:57:39;;;;;;;4.80;2.00;;;13.30;71.00;;;;;;606282;235;26872;-78
2022/05/14 03:00:08;;;;;;;2.50;1.80;;;13.30;70.80;;;;;;604722;236;26670;-78
2022/05/14 03:02:35;;;;;;;4.55;1.70;;;13.30;70.70;;;;;;611727;235;26662;-78
2022/05/14 03:05:02;;;;;;;1.73;1.60;;;13.30;70.70;;;;;;607345;235;26823;-77
2022/05/14 03:07:29;;;;;;;3.37;1.50;;;13.20;70.90;;;;;;606061;235;26834;-78
2022/05/14 03:09:57;;;;;;;2.50;1.52;;;13.10;71.10;;;;;;606082;235;26577;-77
2022/05/14 03:12:24;;;;;;;2.92;1.70;;;13.10;71.40;;;;;;602192;237;26930;-77
2022/05/14 03:14:51;;;;;;;2.67;1.80;;;13.00;71.70;;;;;;605170;236;26552;-77
2022/05/14 03:17:18;;;;;;;2.87;1.67;;;12.90;72.40;;;;;;607987;236;26856;-78
2022/05/14 03:19:46;;;;;;;4.78;2.20;;;12.80;72.80;;;;;;603032;237;26590;-77
2022/05/14 03:22:13;;;;;;;2.03;1.62;;;12.80;73.20;;;;;;604149;233;26590;-77
2022/05/14 03:24:41;;;;;;;3.70;1.85;;;12.60;73.70;;;;;;609299;235;26595;-77
2022/05/14 03:27:10;;;;;;;3.72;2.22;;;12.60;74.00;;;;;;602109;236;26641;-77
2022/05/14 03:29:37;;;;;;;3.75;1.83;;;12.50;74.20;;;;;;602040;236;26622;-78
2022/05/14 03:32:05;;;;;;;3.03;2.33;;;12.50;74.30;;;;;;602645;236;26609;-77
2022/05/14 03:34:32;;;;;;;2.37;1.90;;;12.50;74.30;;;;;;601543;237;26619;-77
2022/05/14 03:37:00;;;;;;;2.25;1.65;;;12.50;74.60;;;;;;603429;235;26858;-77
2022/05/14 03:39:26;;;;;;;5.32;1.80;;;12.40;74.80;;;;;;606793;235;26587;-76
2022/05/14 03:41:54;;;;;;;2.97;1.87;;;12.40;74.90;;;;;;604924;235;26653;-68
2022/05/14 03:44:22;;;;;;;2.17;1.77;;;12.40;75.20;;;;;;604120;236;26657;-68
2022/05/14 03:46:49;;;;;;;1.87;1.62;;;12.40;75.20;;;;;;604440;236;26602;-68
2022/05/14 03:49:17;;;;;;;2.58;1.83;;;12.40;75.30;;;;;;601373;237;26633;-68
2022/05/14 03:51:44;;;;;;;3.05;1.98;;;12.30;75.50;;;;;;604971;235;26881;-68
2022/05/14 03:54:11;;;;;;;6.22;1.83;;;12.30;75.50;;;;;;601382;235;26653;-68
2022/05/14 03:56:39;;;;;;;4.30;1.83;;;12.30;75.60;;;;;;605987;235;26842;-68
2022/05/14 03:59:05;;;;;;;1.83;1.67;;;12.30;76.00;;;;;;603760;236;26669;-68
2022/05/14 04:01:32;;;;;;;2.20;1.87;;;12.30;76.10;;;;;;605408;236;26862;-68
2022/05/14 04:04:00;;;;;;;2.03;1.77;;;12.30;76.10;;;;;;605477;235;26666;-68
2022/05/14 04:06:27;;;;;;;2.35;1.62;;;12.30;76.10;;;;;;603955;235;26835;-68
2022/05/14 04:08:54;;;;;;;2.53;2.00;;;12.30;76.30;;;;;;603557;236;26630;-68
2022/05/14 04:11:21;;;;;;;2.30;1.65;;;12.30;76.20;;;;;;602854;236;27144;-68
2022/05/14 04:13:48;;;;;;;3.17;1.75;;;12.40;75.70;;;;;;604433;233;26648;-68
2022/05/14 04:16:16;;;;;;;2.78;1.70;;;12.40;75.70;;;;;;604855;235;26633;-68
2022/05/14 04:18:44;;;;;;;4.05;2.00;;;12.40;75.80;;;;;;604623;235;26583;-68
2022/05/14 04:21:12;;;;;;;2.40;1.90;;;12.40;76.00;;;;;;602901;235;26578;-68
2022/05/14 04:23:40;;;;;;;2.08;1.70;;;12.50;75.60;;;;;;602222;238;26606;-68
2022/05/14 04:26:08;;;;;;;2.53;1.90;;;12.50;75.80;;;;;;604253;236;26585;-68
2022/05/14 04:28:35;;;;;;;3.03;1.62;;;12.50;75.80;;;;;;602530;236;26806;-69
2022/05/14 04:31:02;;;;;;;2.30;1.75;;;12.60;76.40;;;;;;601945;238;26579;-68
2022/05/14 04:33:29;;;;;;;3.08;1.90;;;12.60;75.50;;;;;;604482;233;26910;-69
2022/05/14 04:35:56;;;;;;;3.25;1.67;;;12.60;75.40;;;;;;606207;236;26656;-68
2022/05/14 04:38:24;;;;;;;5.15;1.83;;;12.70;75.10;;;;;;604464;236;26867;-68
2022/05/14 04:40:52;;;;;;;2.00;1.62;;;12.80;74.80;;;;;;608448;236;26657;-69
2022/05/14 04:43:20;;;;;;;2.62;2.00;;;12.80;75.00;;;;;;602776;235;26688;-68
2022/05/14 04:45:47;;;;;;;1.50;1.42;;;12.80;74.90;;;;;;603806;237;26919;-71
2022/05/14 04:48:15;;;;;;;2.50;1.70;;;12.90;74.80;;;;;;602631;236;26656;-69
2022/05/14 04:50:42;;;;;;;1.92;1.70;;;12.90;74.60;;;;;;604819;235;26850;-69
2022/05/14 04:53:09;;;;;;;3.67;1.65;;;13.00;74.40;;;;;;605533;234;26602;-68
2022/05/14 04:55:37;;;;;;;1.70;1.60;;;13.10;74.20;;;;;;604063;238;26939;-69
2022/05/14 04:58:06;;;;;;;2.90;1.98;;;13.10;74.20;;;;;;602533;238;26859;-68
2022/05/14 05:00:31;;;;;;;1.90;1.62;;;13.20;73.60;;;;;;603583;236;26577;-68
2022/05/14 05:05:32;;;;;;;3.42;1.67;;;13.30;72.80;;;;;;603602;235;26656;-68
2022/05/14 05:07:59;;;;;;;2.30;1.52;;;13.30;72.50;;;;;;608770;235;26872;-67
2022/05/14 05:10:27;;;;;;;2.35;1.60;;;13.50;72.10;;;;;;610313;233;26617;-68
2022/05/14 05:12:55;;;;;;;3.17;1.77;;;13.40;72.00;;;;;;606381;234;26630;-67
2022/05/14 05:15:22;;;;;;;3.53;1.87;;;13.50;71.60;;;;;;602938;237;26864;-68
2022/05/14 05:17:49;;;;;;;3.60;1.77;;;13.50;71.10;;;;;;606828;234;26586;-67
2022/05/14 05:20:16;;;;;;;1.87;1.60;;;13.60;70.90;;;;;;607661;234;26669;-67
2022/05/14 05:22:43;;;;;;;2.92;1.80;;;13.70;70.70;;;;;;607221;236;26612;-67
2022/05/14 05:25:12;;;;;;;2.60;1.80;;;13.80;70.40;;;;;;605293;235;26866;-67
2022/05/14 05:27:38;;;;;;;3.80;1.80;;;13.80;70.20;;;;;;603390;235;26582;-67
2022/05/14 05:30:07;;;;;;;3.92;1.85;;;14.00;69.70;;;;;;608177;235;27043;-67
2022/05/14 05:32:34;;;;;;;2.42;1.83;;;14.00;69.80;;;;;;611220;234;26614;-67
2022/05/14 05:35:02;;;;;;;2.47;1.75;;;14.10;69.70;;;;;;604016;234;26845;-67
2022/05/14 05:37:29;;;;;;;2.72;1.70;;;14.10;69.50;;;;;;603531;235;26560;-67
2022/05/14 05:39:56;;;;;;;3.37;1.58;;;14.20;69.40;;;;;;604149;236;26842;-67
2022/05/14 05:42:23;;;;;;;3.12;1.75;;;14.30;69.10;;;;;;608739;234;26652;-67
2022/05/14 05:44:50;;;;;;;3.20;2.00;;;14.30;68.80;;;;;;606174;235;26832;-67
2022/05/14 05:47:18;;;;;;;3.87;1.77;;;14.40;68.60;;;;;;603953;237;26601;-67
2022/05/14 05:49:46;;;;;;;3.87;2.10;;;14.50;68.30;;;;;;605446;236;26603;-67
2022/05/14 05:52:14;;;;;;;3.08;1.90;;;14.50;68.30;;;;;;602702;235;26657;-67
2022/05/14 05:57:15;;;;;;;2.80;2.00;;;14.50;67.70;;;;;;604033;235;26598;-69
2022/05/14 05:59:43;;;;;;;3.03;1.98;;;14.70;67.50;;;;;;609678;234;26646;-67
2022/05/14 06:02:10;;;;;;;2.70;1.70;;;14.80;67.10;;;;;;607075;235;26811;-68
2022/05/14 06:04:38;;;;;;;4.32;1.70;;;15.30;66.30;;;;;;605369;235;26622;-68
2022/05/14 06:07:05;;;;;;;1.83;1.67;;;15.60;64.80;;;;;;601525;237;27001;-68
2022/05/14 06:09:32;;;;;;;2.37;2.05;;;15.60;64.80;;;;;;602686;237;26636;-68
2022/05/14 06:11:59;;;;;;;2.75;1.75;;;15.50;64.90;;;;;;603442;236;27246;-68
2022/05/14 06:14:27;;;;;;;3.83;2.00;;;15.30;65.20;;;;;;602200;236;26611;-69
2022/05/14 06:16:55;;;;;;;4.37;2.05;;;15.30;65.40;;;;;;607510;235;26630;-69
2022/05/14 06:19:23;;;;;;;6.05;2.05;;;15.30;65.40;;;;;;604012;235;26649;-70
2022/05/14 06:21:51;;;;;;;4.20;2.30;;;15.10;65.50;;;;;;603982;234;26628;-70
2022/05/14 06:24:18;;;;;;;1.92;1.58;;;15.00;65.40;;;;;;609610;234;26599;-69
2022/05/14 06:26:46;;;;;;;4.65;2.10;;;15.00;65.70;;;;;;607119;234;26594;-70
2022/05/14 06:29:12;;;;;;;3.42;1.98;;;15.00;66.20;;;;;;610118;235;26832;-69
2022/05/14 06:31:40;;;;;;;1.95;1.75;;;15.10;66.10;;;;;;609148;234;26619;-69
2022/05/14 06:34:08;;;;;;;3.53;1.85;;;15.40;65.80;;;;;;604059;238;27187;-69
2022/05/14 06:36:35;;;;;;;4.35;1.83;;;15.40;65.80;;;;;;606716;236;27253;-70
2022/05/14 06:39:02;;;;;;;2.75;2.03;;;15.50;65.50;;;;;;605604;235;26633;-69
2022/05/14 06:41:30;;;;;;;2.17;1.65;;;16.00;65.10;;;;;;601699;236;26934;-69
2022/05/14 06:43:56;;;;;;;3.37;1.65;;;16.10;64.40;;;;;;604891;235;26624;-69
2022/05/14 06:46:24;;;;;;;5.85;2.10;;;16.10;64.30;;;;;;607467;235;26880;-70
2022/05/14 06:48:52;;;;;;;2.33;1.85;;;16.10;64.40;;;;;;606707;236;26593;-70
2022/05/14 06:51:19;;;;;;;3.70;2.00;;;16.10;64.30;;;;;;602757;236;27165;-70
2022/05/14 06:53:46;;;;;;;4.50;1.90;;;16.10;64.50;;;;;;603744;235;26614;-70
2022/05/14 06:56:15;;;;;;;2.60;1.90;;;16.20;65.30;;;;;;605732;236;26597;-70
2022/05/14 06:58:42;;;;;;;2.58;1.62;;;16.10;65.10;;;;;;605096;236;26801;-70
2022/05/14 07:01:10;;;;;;;2.03;1.83;;;16.30;65.50;;;;;;603292;235;26656;-71
2022/05/14 07:08:42;;;;;;;2.75;1.80;;;16.60;64.60;;;;;;604745;235;26643;-69
2022/05/14 07:11:10;;;;;;;2.75;2.00;;;16.60;64.80;;;;;;606277;235;26645;-70
2022/05/14 07:13:38;;;;;;;3.22;1.75;;;16.60;64.80;;;;;;605639;235;26841;-70
2022/05/14 07:16:05;;;;;;;1.87;1.67;;;16.70;64.90;;;;;;603912;234;26633;-70
2022/05/14 07:18:32;;;;;;;3.05;1.60;;;16.80;64.20;;;;;;605948;236;26862;-70
2022/05/14 07:21:00;;;;;;;4.50;1.80;;;16.70;64.80;;;;;;606011;235;26580;-71
2022/05/14 07:23:27;;;;;;;3.00;1.92;;;16.80;64.70;;;;;;604542;234;26611;-70
2022/05/14 07:25:54;;;;;;;2.85;1.75;;;17.00;64.70;;;;;;604308;232;27325;-69
2022/05/14 07:28:21;;;;;;;4.43;2.00;;;16.90;64.80;;;;;;607098;235;26632;-70
2022/05/14 07:30:48;;;;;;;3.00;1.42;;;17.30;64.40;;;;;;602182;236;26850;-70
2022/05/14 07:33:16;;;;;;;3.92;1.52;;;17.30;63.70;;;;;;605064;234;26588;-69
2022/05/14 07:35:43;;;;;;;3.12;1.80;;;17.20;63.80;;;;;;610518;234;26562;-70
2022/05/14 07:38:11;;;;;;;2.58;2.00;;;17.30;64.20;;;;;;605868;234;26545;-70
2022/05/14 07:40:39;;;;;;;6.07;2.10;;;17.50;64.00;;;;;;604576;234;26585;-71
2022/05/14 07:43:07;;;;;;;82.25;13.18;;;17.50;63.90;;;;;;607484;235;26631;-70
2022/05/14 07:45:34;;;;;;;107.40;20.25;;;17.90;63.80;;;;;;605339;235;26605;-70
2022/05/14 07:48:02;;;;;;;124.10;22.65;;;17.80;62.50;;;;;;603843;236;26630;-69
2022/05/14 07:50:29;;;;;;;84.40;18.20;;;18.00;62.70;;;;;;605867;236;26568;-68
2022/05/14 07:52:57;;;;;;;92.20;17.08;;;18.00;63.00;;;;;;604165;236;27002;-71
2022/05/14 07:55:24;;;;;;;90.87;17.45;;;18.30;62.60;;;;;;604490;235;26585;-70
2022/05/14 07:57:52;;;;;;;91.55;17.35;;;18.50;61.80;;;;;;605707;235;26589;-68
2022/05/14 08:00:21;;;;;;;80.68;15.73;;;18.50;61.80;;;;;;607066;234;26580;-70
2022/05/14 08:02:48;;;;;;;75.75;13.90;;;18.30;61.50;;;;;;606523;234;26603;-68
2022/05/14 08:05:20;;;;;;;73.47;14.20;;;17.80;62.20;;;;;;606875;235;26653;-68
2022/05/14 08:07:45;;;;;;;63.87;13.30;;;18.00;62.30;;;;;;605113;233;26581;-69
2022/05/14 08:10:13;;;;;;;68.93;12.55;;;17.90;62.10;;;;;;604302;235;26626;-69
2022/05/14 08:12:40;;;;;;;45.83;10.25;;;17.90;61.50;;;;;;607185;230;26637;-70
2022/05/14 08:15:09;;;;;;;34.42;8.80;;;17.90;61.60;;;;;;602395;236;26653;-70
2022/05/14 08:17:37;;;;;;;32.97;8.65;;;17.90;61.60;;;;;;604426;238;26579;-69
2022/05/14 08:20:05;;;;;;;23.08;6.60;;;17.80;61.40;;;;;;603410;236;26641;-69
2022/05/14 08:25:07;;;;;;;21.50;6.60;;;17.80;62.00;;;;;;606689;235;26896;-71
2022/05/14 08:27:44;;;;;;;17.42;4.45;;;17.90;62.10;;;;;;605038;233;26623;-71
2022/05/14 08:30:01;;;;;;;11.18;3.10;;;17.90;61.80;;;;;;604353;234;26571;-70
2022/05/14 08:32:29;;;;;;;7.82;2.50;;;18.00;61.40;;;;;;602890;238;26633;-71
2022/05/14 08:34:57;;;;;;;5.95;2.40;;;18.10;60.10;;;;;;601624;235;26665;-70
2022/05/14 08:37:25;;;;;;;7.72;2.85;;;18.10;60.10;;;;;;606732;235;26599;-69
2022/05/14 08:39:51;;;;;;;4.72;2.37;;;18.50;59.70;;;;;;604332;235;26599;-69
2022/05/14 08:42:18;;;;;;;11.07;2.55;;;18.60;59.50;;;;;;603784;235;26866;-70
2022/05/14 08:44:46;;;;;;;8.18;3.03;;;18.40;59.70;;;;;;603785;233;26650;-71
2022/05/14 08:47:23;;;;;;;5.15;2.25;;;18.40;59.90;;;;;;608148;233;26867;-70
2022/05/14 08:49:53;;;;;;;6.28;2.60;;;18.50;59.70;;;;;;605367;235;26664;-70
2022/05/14 08:52:17;;;;;;;11.35;2.55;;;18.50;59.80;;;;;;604236;235;26832;-70
2022/05/14 08:54:44;;;;;;;6.18;2.30;;;18.90;59.10;;;;;;605230;235;26651;-70
2022/05/14 08:57:34;;;;;;;10.65;2.25;;;18.60;58.80;;;;;;606826;235;26597;-71
2022/05/14 09:00:02;;;;;;;6.32;2.50;;;18.60;58.80;;;;;;608175;235;26638;-70
2022/05/14 09:02:30;;;;;;;3.67;2.10;;;18.70;59.10;;;;;;611230;235;26643;-70
2022/05/14 09:05:01;;;;;;;6.50;2.70;;;18.80;58.70;;;;;;610780;235;26580;-71
2022/05/14 09:07:28;;;;;;;7.68;2.70;;;18.70;58.60;;;;;;610966;235;26830;-69
2022/05/14 09:09:55;;;;;;;6.15;2.00;;;18.90;58.50;;;;;;611113;235;26631;-69
2022/05/14 09:12:23;;;;;;;4.93;1.95;;;18.90;58.50;;;;;;611372;235;26828;-69
2022/05/14 09:14:55;;;;;;;5.55;2.15;;;19.00;58.40;;;;;;611335;235;26606;-70
2022/05/14 09:17:22;;;;;;;6.10;2.22;;;18.90;58.80;;;;;;611998;235;26555;-71
2022/05/14 09:19:49;;;;;;;6.90;2.22;;;19.00;58.40;;;;;;613040;234;26795;-71
2022/05/14 09:22:32;;;;;;;6.00;2.55;;;18.70;57.50;;;;;;612464;235;26646;-71
2022/05/14 09:25:20;;;;;;;4.47;2.50;;;18.60;57.70;;;;;;612031;235;26851;-71
2022/05/14 09:27:49;;;;;;;9.18;2.72;;;18.40;57.50;;;;;;608797;235;26637;-70
2022/05/14 09:30:22;;;;;;;3.92;2.42;;;18.30;57.50;;;;;;612097;235;26610;-70
2022/05/14 09:32:50;;;;;;;4.12;2.65;;;18.40;57.70;;;;;;612195;235;26657;-70
2022/05/14 09:35:21;;;;;;;5.07;2.37;;;18.50;57.60;;;;;;612409;234;26621;-70
2022/05/14 09:37:48;;;;;;;6.90;2.47;;;18.50;57.60;;;;;;612295;235;26628;-69
2022/05/14 09:40:20;;;;;;;5.65;2.40;;;18.80;54.90;;;;;;612370;234;26635;-70
2022/05/14 09:42:46;;;;;;;11.57;2.62;;;18.70;54.80;;;;;;612173;235;26681;-63
2022/05/14 09:45:34;;;;;;;7.03;2.50;;;18.70;54.80;;;;;;612209;235;26640;-63
2022/05/14 09:48:08;;;;;;;7.30;2.30;;;18.70;54.80;;;;;;612215;235;26599;-64
2022/05/14 09:50:36;;;;;;;3.47;2.22;;;18.80;53.90;;;;;;612440;234;26617;-64
2022/05/14 09:53:04;;;;;;;7.32;2.65;;;18.90;53.10;;;;;;612386;235;26621;-64
2022/05/14 09:55:44;;;;;;;12.85;2.42;;;18.90;53.10;;;;;;612383;234;26623;-70
2022/05/14 09:58:15;;;;;;;5.72;2.25;;;18.90;52.90;;;;;;613907;232;26629;-66
2022/05/14 10:00:43;;;;;;;44.20;9.30;;;18.90;52.20;;;;;;613057;234;26584;-65
2022/05/14 10:03:30;;;;;;;99.90;20.70;;;18.80;52.00;;;;;;612054;234;26615;-65
2022/05/14 10:06:05;;;;;;;125.80;27.70;;;18.60;51.60;;;;;;612535;234;26816;-67
2022/05/14 10:08:39;;;;;;;104.65;24.05;;;18.60;51.70;;;;;;612992;235;26602;-66
2022/05/14 10:11:09;;;;;;;103.72;23.17;;;18.90;52.30;;;;;;605543;235;26583;-64
2022/05/14 10:14:05;;;;;;;69.37;18.27;;;19.10;51.50;;;;;;601751;239;26626;-63
2022/05/14 10:16:34;;;;;;;70.97;18.37;;;19.30;51.50;;;;;;601767;233;26566;-64
2022/05/14 10:19:04;;;;;;;73.60;16.37;;;19.50;51.00;;;;;;602020;236;26549;-63
2022/05/14 10:21:53;;;;;;;48.40;12.00;;;19.30;50.90;;;;;;601443;239;26554;-63
2022/05/14 10:26:59;;;;;;;34.25;9.15;;;19.30;51.70;;;;;;602220;239;26808;-63
2022/05/14 10:29:33;;;;;;;39.08;9.35;;;19.30;51.00;;;;;;601376;235;26557;-62
2022/05/14 10:32:04;;;;;;;19.98;6.60;;;19.20;50.50;;;;;;602093;237;26551;-63
2022/05/14 10:34:41;;;;;;;7.37;3.00;;;19.30;50.90;;;;;;602190;235;26630;-63
2022/05/14 10:37:11;;;;;;;8.13;2.87;;;19.10;50.50;;;;;;604576;237;26611;-62
2022/05/14 10:39:42;;;;;;;5.20;2.60;;;19.00;51.00;;;;;;605395;235;26868;-63
2022/05/14 10:42:20;;;;;;;4.82;2.28;;;19.00;51.00;;;;;;603413;234;26636;-62
2022/05/14 10:44:50;;;;;;;4.40;2.45;;;19.10;50.80;;;;;;602706;238;26581;-62
2022/05/14 10:47:18;;;;;;;4.10;2.00;;;18.90;51.50;;;;;;601519;237;26641;-62
2022/05/14 10:49:53;;;;;;;5.55;2.75;;;18.90;51.50;;;;;;602455;237;26637;-62
2022/05/14 10:52:20;;;;;;;6.62;2.25;;;19.00;51.70;;;;;;608770;234;26618;-63
2022/05/14 10:54:47;;;;;;;5.25;1.90;;;18.80;52.00;;;;;;604164;234;27204;-63
2022/05/14 10:57:31;;;;;;;4.37;2.20;;;19.20;51.90;;;;;;607387;235;26577;-63
2022/05/14 11:00:01;;;;;;;3.70;2.30;;;19.70;51.80;;;;;;603779;236;26586;-62
2022/05/14 11:02:28;;;;;;;3.35;2.10;;;20.30;51.00;;;;;;606821;236;26659;-63
2022/05/14 11:04:55;;;;;;;4.20;2.40;;;20.30;51.00;;;;;;610820;235;26845;-63
2022/05/14 11:07:29;;;;;;;6.60;2.05;;;20.50;50.60;;;;;;604565;237;26582;-62
2022/05/14 11:09:56;;;;;;;4.72;2.17;;;20.60;50.60;;;;;;608185;235;26628;-62
2022/05/14 11:12:32;;;;;;;5.35;2.30;;;20.40;50.10;;;;;;606228;235;26661;-62
2022/05/14 11:15:00;;;;;;;7.28;2.58;;;20.60;50.20;;;;;;604250;235;26901;-62
2022/05/14 11:17:29;;;;;;;4.57;2.12;;;20.60;50.20;;;;;;605313;236;26804;-63
2022/05/14 11:20:11;;;;;;;6.37;2.00;;;20.90;50.40;;;;;;603864;237;26639;-62
2022/05/14 11:22:40;;;;;;;7.25;2.20;;;21.30;50.00;;;;;;604172;237;26686;-62
2022/05/14 11:25:24;;;;;;;2.85;2.33;;;20.90;49.80;;;;;;602461;232;26807;-62
2022/05/14 11:27:57;;;;;;;5.43;2.30;;;20.20;50.40;;;;;;606697;236;26603;-62
2022/05/14 11:30:32;;;;;;;4.03;1.95;;;20.40;50.60;;;;;;611413;235;26588;-62
2022/05/14 11:32:59;;;;;;;3.90;2.28;;;20.40;50.60;;;;;;603974;237;26835;-62
2022/05/14 11:35:40;;;;;;;4.22;2.40;;;19.90;51.30;;;;;;604156;237;26586;-61
2022/05/14 11:38:14;;;;;;;4.10;2.40;;;19.80;50.80;;;;;;604827;236;27233;-62
2022/05/14 11:40:41;;;;;;;3.33;2.30;;;19.60;51.50;;;;;;603727;236;26894;-62
2022/05/14 11:43:09;;;;;;;2.92;1.95;;;20.30;51.50;;;;;;602046;236;26629;-62
2022/05/14 11:45:37;;;;;;;3.28;1.85;;;20.30;51.50;;;;;;607701;236;26828;-62
2022/05/14 11:48:21;;;;;;;6.32;2.10;;;20.50;51.10;;;;;;603108;237;26612;-62
2022/05/14 11:51:06;;;;;;;5.82;2.42;;;19.90;51.30;;;;;;602272;238;26606;-62
2022/05/14 11:53:43;;;;;;;8.43;2.47;;;19.80;51.80;;;;;;610263;234;26663;-62
2022/05/14 11:56:13;;;;;;;3.40;2.10;;;20.10;51.30;;;;;;603344;238;26852;-62
2022/05/14 11:58:42;;;;;;;3.72;2.30;;;20.20;51.20;;;;;;602545;238;26597;-62
2022/05/14 12:01:13;;;;;;;4.22;2.15;;;20.40;50.90;;;;;;604685;237;26566;-63
2022/05/14 12:03:40;;;;;;;6.68;2.62;;;20.40;50.80;;;;;;606344;234;26574;-61
2022/05/14 12:06:14;;;;;;;9.23;3.17;;;20.30;50.60;;;;;;606467;235;26575;-61
2022/05/14 12:08:50;;;;;;;5.00;2.30;;;20.40;50.50;;;;;;607030;236;26885;-63
2022/05/14 12:11:27;;;;;;;7.78;2.83;;;20.30;50.60;;;;;;602172;236;26639;-62
2022/05/14 12:14:08;;;;;;;3.05;2.12;;;20.30;50.60;;;;;;607669;236;26599;-63
2022/05/14 12:16:38;;;;;;;4.62;2.20;;;20.80;50.80;;;;;;602278;238;26634;-62
2022/05/14 12:19:06;;;;;;;3.62;2.33;;;20.70;50.70;;;;;;604298;232;26859;-62
2022/05/14 12:21:34;;;;;;;3.72;1.95;;;20.30;50.60;;;;;;605819;237;26809;-63
2022/05/14 12:24:01;;;;;;;5.35;2.55;;;20.30;51.00;;;;;;605567;236;26619;-63
2022/05/14 12:26:28;;;;;;;5.60;2.40;;;20.50;51.00;;;;;;603310;236;26828;-62
2022/05/14 12:28:55;;;;;;;6.43;2.33;;;20.50;50.70;;;;;;608894;235;26594;-65
2022/05/14 12:34:01;;;;;;;7.05;2.28;;;20.80;50.40;;;;;;605440;235;26615;-63
2022/05/14 12:36:33;;;;;;;4.95;2.50;;;20.70;51.00;;;;;;606418;232;26835;-63
2022/05/14 12:39:03;;;;;;;5.68;2.47;;;20.90;50.70;;;;;;601998;238;26601;-63
2022/05/14 12:41:31;;;;;;;4.15;2.20;;;21.30;50.40;;;;;;601350;238;26545;-63
2022/05/14 12:44:13;;;;;;;5.05;2.12;;;21.60;49.70;;;;;;601482;238;26588;-63
2022/05/14 12:46:41;;;;;;;8.00;3.10;;;21.60;49.70;;;;;;599962;234;26654;-63
2022/05/14 12:49:08;;;;;;;6.72;2.80;;;21.70;48.80;;;;;;604439;235;26584;-62
2022/05/14 12:51:36;;;;;;;6.68;2.70;;;21.20;49.60;;;;;;604595;236;26587;-66
2022/05/14 12:54:04;;;;;;;7.18;2.67;;;21.30;49.60;;;;;;605573;236;26613;-62
2022/05/14 12:56:32;;;;;;;5.93;2.62;;;21.00;49.90;;;;;;606371;236;26663;-62
2022/05/14 12:59:01;;;;;;;3.87;2.60;;;21.00;50.50;;;;;;601917;233;26671;-63
2022/05/14 13:01:29;;;;;;;6.05;2.72;;;21.20;50.20;;;;;;604570;235;26594;-62
2022/05/14 13:03:56;;;;;;;5.18;2.40;;;21.10;50.10;;;;;;605762;235;26622;-62
2022/05/14 13:06:24;;;;;;;4.55;2.42;;;21.30;49.90;;;;;;601733;238;26643;-63
2022/05/14 13:08:51;;;;;;;4.05;2.30;;;21.00;49.90;;;;;;601437;235;26638;-63
2022/05/14 13:11:20;;;;;;;5.75;2.70;;;21.20;49.30;;;;;;601792;236;26595;-62
2022/05/14 13:13:47;;;;;;;4.57;2.28;;;21.20;49.30;;;;;;601855;238;26613;-63
2022/05/14 13:16:16;;;;;;;3.78;2.30;;;21.30;49.20;;;;;;601716;237;26815;-62
2022/05/14 13:18:43;;;;;;;6.78;2.58;;;21.30;49.50;;;;;;604087;238;26793;-63
2022/05/14 13:21:11;;;;;;;4.15;2.53;;;21.40;49.40;;;;;;604616;238;26610;-61